createdAt,value
2023-01-20T00:02:21.436Z,4.80
2023-01-20T00:07:19.955Z,4.80
2023-01-20T00:12:18.496Z,4.80
2023-01-20T00:17:18.343Z,4.70
2023-01-20T00:22:16.600Z,4.70
2023-01-20T00:27:14.892Z,4.70
2023-01-20T00:32:14.353Z,4.70
2023-01-20T00:37:14.168Z,5.10
2023-01-20T00:42:12.372Z,4.70
2023-01-20T00:47:10.889Z,4.80
2023-01-20T00:52:09.060Z,4.80
2023-01-20T00:57:08.964Z,4.80
2023-01-20T01:02:07.746Z,4.80
2023-01-20T01:07:05.926Z,5.20
2023-01-20T01:12:05.090Z,5.10
2023-01-20T01:17:04.992Z,4.80
2023-01-20T01:22:03.519Z,4.80
2023-01-20T01:27:02.355Z,4.90
2023-01-20T01:32:00.550Z,5.00
2023-01-20T01:37:00.181Z,5.20
2023-01-20T01:41:58.697Z,4.90
2023-01-20T01:46:57.220Z,5.00
2023-01-20T01:58:50.429Z,4.90
2023-01-20T02:03:56.375Z,4.90
2023-01-20T02:08:55.272Z,4.90
2023-01-20T02:13:54.932Z,4.90
2023-01-20T02:19:03.820Z,4.90
2023-01-20T02:24:40.802Z,5.00
2023-01-20T02:30:09.841Z,5.00
2023-01-20T02:35:15.173Z,5.00
2023-01-20T02:40:22.420Z,4.90
2023-01-20T02:45:25.721Z,5.10
2023-01-20T02:50:33.221Z,4.90
2023-01-20T02:55:39.917Z,5.00
2023-01-20T03:00:43.558Z,5.30
2023-01-20T03:05:49.773Z,4.90
2023-01-20T03:10:50.880Z,4.90
2023-01-20T03:15:58.372Z,5.00
2023-01-20T03:20:59.091Z,5.00
2023-01-20T03:25:58.636Z,4.90
2023-01-20T03:30:59.034Z,4.90
2023-01-20T03:35:59.262Z,5.20
2023-01-20T03:41:05.184Z,5.00
2023-01-20T03:46:08.288Z,4.80
2023-01-20T03:51:14.923Z,4.70
2023-01-20T03:56:19.189Z,4.70
2023-01-20T04:01:20.432Z,4.60
2023-01-20T04:06:22.909Z,4.90
2023-01-20T04:11:21.769Z,4.70
2023-01-20T04:16:21.761Z,4.70
2023-01-20T04:21:28.426Z,4.70
2023-01-20T04:26:26.955Z,4.70
2023-01-20T04:31:30.938Z,5.00
2023-01-20T04:36:31.343Z,4.70
2023-01-20T04:41:29.925Z,4.80
2023-01-20T04:46:28.517Z,5.00
2023-01-20T04:51:27.377Z,4.80
2023-01-20T04:56:27.809Z,4.80
2023-01-20T05:01:26.684Z,4.80
2023-01-20T05:06:25.831Z,4.80
2023-01-20T05:11:24.612Z,4.80
2023-01-20T05:16:26.318Z,5.10
2023-01-20T05:21:25.088Z,4.80
2023-01-20T05:26:24.407Z,4.70
2023-01-20T05:31:24.384Z,4.90
2023-01-20T05:36:23.039Z,5.10
2023-01-20T05:41:21.727Z,5.00
2023-01-20T05:46:20.344Z,4.80
2023-01-20T05:51:35.375Z,5.00
2023-01-20T05:56:33.989Z,4.80
2023-01-20T06:01:32.578Z,4.80
2023-01-20T06:06:30.810Z,4.70
2023-01-20T06:11:30.790Z,4.90
2023-01-20T06:16:30.187Z,4.70
2023-01-20T06:21:28.797Z,4.60
2023-01-20T06:26:27.680Z,4.60
2023-01-20T06:31:28.918Z,4.70
2023-01-20T06:36:27.712Z,5.10
2023-01-20T06:41:26.413Z,5.00
2023-01-20T06:46:26.992Z,4.90
2023-01-20T06:51:25.558Z,4.90
2023-01-20T06:56:24.565Z,4.90
2023-01-20T07:01:25.585Z,4.90
2023-01-20T07:06:29.580Z,5.00
2023-01-20T07:11:28.551Z,4.90
2023-01-20T07:16:27.331Z,4.90
2023-01-20T07:21:27.925Z,4.90
2023-01-20T07:26:26.901Z,4.90
2023-01-20T07:31:27.785Z,5.00
2023-01-20T07:36:28.774Z,5.00
2023-01-20T07:41:27.649Z,5.10
2023-01-20T07:46:25.843Z,5.30
2023-01-20T07:51:24.760Z,4.90
2023-01-20T07:56:26.213Z,5.20
2023-01-20T08:01:26.636Z,4.90
2023-01-20T08:06:27.251Z,4.90
2023-01-20T08:11:27.285Z,5.00
2023-01-20T08:16:25.567Z,4.90
2023-01-20T08:21:26.809Z,5.00
2023-01-20T08:26:29.160Z,5.40
2023-01-20T08:31:29.036Z,5.00
2023-01-20T08:36:29.575Z,5.00
2023-01-20T08:41:31.115Z,5.00
2023-01-20T08:46:30.207Z,5.00
2023-01-20T08:51:30.845Z,5.00
2023-01-20T08:56:31.564Z,5.00
2023-01-20T09:01:33.649Z,5.40
2023-01-20T09:06:32.016Z,5.10
2023-01-20T09:11:32.380Z,5.10
2023-01-20T09:16:30.931Z,5.40
2023-01-20T09:21:29.196Z,5.40
2023-01-20T09:26:36.278Z,5.10
2023-01-20T09:31:36.784Z,5.40
2023-01-20T09:36:35.485Z,5.20
2023-01-20T09:41:54.303Z,5.20
2023-01-20T09:47:23.013Z,5.50
2023-01-20T09:52:47.992Z,5.30
2023-01-20T09:57:52.372Z,5.40
2023-01-20T10:02:57.745Z,5.40
2023-01-20T10:08:00.197Z,5.40
2023-01-20T10:13:06.321Z,5.60
2023-01-20T10:18:09.533Z,5.50
2023-01-20T10:23:12.080Z,5.60
2023-01-20T10:28:15.816Z,5.60
2023-01-20T10:33:22.507Z,5.70
2023-01-20T10:38:27.192Z,5.70
2023-01-20T10:43:25.844Z,5.70
2023-01-20T10:48:40.661Z,5.60
2023-01-20T10:53:54.420Z,6.00
2023-01-20T10:58:53.145Z,5.70
2023-01-20T11:03:52.728Z,5.80
2023-01-20T11:08:51.454Z,5.70
2023-01-20T11:13:51.989Z,5.90
2023-01-20T11:19:00.302Z,6.10
2023-01-20T11:24:00.913Z,5.80
2023-01-20T11:29:01.497Z,5.90
2023-01-20T11:34:03.630Z,6.20
2023-01-20T11:39:01.861Z,6.20
2023-01-20T11:44:01.948Z,6.10
2023-01-20T11:49:22.444Z,6.20
2023-01-20T11:54:24.332Z,6.60
2023-01-20T11:59:29.250Z,6.30
2023-01-20T12:04:45.809Z,6.40
2023-01-20T12:09:46.799Z,6.60
2023-01-20T12:14:51.117Z,6.50
2023-01-20T12:20:05.014Z,6.50
2023-01-20T12:25:14.088Z,6.60
2023-01-20T12:30:40.289Z,6.60
2023-01-20T12:36:22.308Z,6.60
2023-01-20T12:41:41.325Z,6.60
2023-01-20T12:46:46.309Z,7.00
2023-01-20T12:51:57.541Z,6.80
2023-01-20T12:57:07.938Z,6.90
2023-01-20T13:02:40.687Z,6.80
2023-01-20T13:07:51.558Z,6.80
2023-01-20T13:12:57.683Z,6.70
2023-01-20T13:18:16.777Z,6.80
2023-01-20T13:23:17.980Z,6.80
2023-01-20T13:28:24.086Z,6.90
2023-01-20T13:33:43.542Z,7.10
2023-01-20T13:38:43.193Z,7.00
2023-01-20T13:43:50.771Z,7.10
2023-01-20T13:49:21.728Z,7.20
2023-01-20T13:54:38.822Z,7.20
2023-01-20T13:59:38.792Z,7.20
2023-01-20T14:04:37.974Z,7.20
2023-01-20T14:09:37.769Z,7.20
2023-01-20T14:14:35.992Z,7.20
2023-01-20T14:19:37.413Z,7.20
2023-01-20T14:24:38.052Z,7.20
2023-01-20T14:29:36.676Z,7.20
2023-01-20T14:34:36.633Z,7.20
2023-01-20T14:39:35.405Z,7.40
2023-01-20T14:44:34.212Z,7.10
2023-01-20T14:49:39.735Z,7.10
2023-01-20T14:54:42.951Z,7.20
2023-01-20T14:59:41.581Z,7.10
2023-01-20T15:04:41.564Z,7.00
2023-01-20T15:09:45.395Z,6.90
2023-01-20T15:14:43.959Z,6.90
2023-01-20T15:19:47.500Z,6.80
2023-01-20T15:24:47.911Z,6.90
2023-01-20T15:30:06.265Z,6.90
2023-01-20T15:35:06.984Z,6.80
2023-01-20T15:40:06.107Z,6.70
2023-01-20T15:45:04.628Z,6.60
2023-01-20T15:50:03.118Z,6.70
2023-01-20T15:55:02.979Z,6.50
2023-01-20T16:00:01.387Z,6.50
2023-01-20T16:04:59.961Z,6.40
2023-01-20T16:09:58.983Z,6.40
2023-01-20T16:14:58.942Z,6.30
2023-01-20T16:19:57.049Z,6.50
2023-01-20T16:24:55.136Z,6.20
2023-01-20T16:29:54.226Z,6.00
2023-01-20T16:34:54.056Z,6.10
2023-01-20T16:39:52.701Z,6.10
2023-01-20T16:44:51.257Z,6.10
2023-01-20T16:49:50.340Z,6.00
2023-01-20T16:54:50.273Z,6.00
2023-01-20T16:59:48.790Z,6.00
2023-01-20T17:04:47.315Z,5.90
2023-01-20T17:09:45.919Z,5.90
2023-01-20T17:14:45.750Z,5.90
2023-01-20T17:19:43.919Z,5.90
2023-01-20T17:24:42.817Z,5.80
2023-01-20T17:29:41.484Z,5.80
2023-01-20T17:34:41.043Z,5.70
2023-01-20T17:39:39.252Z,5.70
2023-01-20T17:44:37.907Z,5.70
2023-01-20T17:49:36.109Z,5.70
2023-01-20T17:54:36.010Z,5.90
2023-01-20T17:59:34.570Z,5.60
2023-01-20T18:04:33.212Z,5.60
2023-01-20T18:09:31.923Z,5.50
2023-01-20T18:14:32.254Z,5.80
2023-01-20T18:19:30.761Z,5.50
2023-01-20T18:24:29.427Z,5.80
2023-01-20T18:29:30.727Z,5.40
2023-01-20T18:34:30.934Z,5.30
2023-01-20T18:39:29.596Z,5.30
2023-01-20T18:44:28.170Z,5.40
2023-01-20T18:49:26.820Z,5.30
2023-01-20T18:54:27.501Z,5.30
2023-01-20T18:59:26.418Z,5.20
2023-01-20T19:04:24.977Z,5.10
2023-01-20T19:09:23.450Z,5.10
2023-01-20T19:14:23.261Z,5.50
2023-01-20T19:19:21.441Z,5.10
2023-01-20T19:24:21.601Z,5.10
2023-01-20T19:29:20.130Z,5.10
2023-01-20T19:34:19.958Z,5.10
2023-01-20T19:39:18.701Z,5.10
2023-01-20T19:44:17.253Z,5.20
2023-01-20T19:49:15.768Z,5.60
2023-01-20T19:54:15.653Z,5.30
2023-01-20T19:59:15.444Z,5.20
2023-01-20T20:04:14.425Z,5.20
2023-01-20T20:09:16.415Z,5.20
2023-01-20T20:14:16.785Z,5.20
2023-01-20T20:19:17.651Z,5.20
2023-01-20T20:24:19.788Z,5.20
2023-01-20T20:29:19.780Z,5.10
2023-01-20T20:34:19.767Z,5.10
2023-01-20T20:39:20.340Z,5.10
2023-01-20T20:44:18.955Z,5.00
2023-01-20T20:49:17.903Z,5.00
2023-01-20T20:54:17.428Z,5.00
2023-01-20T20:59:19.990Z,4.90
2023-01-20T21:04:18.692Z,4.90
2023-01-20T21:09:17.513Z,4.90
2023-01-20T21:14:18.966Z,4.80
2023-01-20T21:19:17.498Z,4.80
2023-01-20T21:24:15.753Z,4.80
2023-01-20T21:29:14.491Z,4.80
2023-01-20T21:34:16.554Z,4.80
2023-01-20T21:39:17.303Z,4.80
2023-01-20T21:44:33.019Z,4.80
2023-01-20T21:49:50.142Z,4.90
2023-01-20T21:54:48.629Z,4.80
2023-01-20T21:59:47.150Z,4.80
2023-01-20T22:04:47.902Z,4.90
2023-01-20T22:09:46.495Z,5.00
2023-01-20T22:14:45.045Z,5.10
2023-01-20T22:19:43.921Z,4.90
2023-01-20T22:24:44.443Z,5.30
2023-01-20T22:29:42.998Z,5.00
2023-01-20T22:34:41.521Z,5.30
2023-01-20T22:39:40.163Z,5.10
2023-01-20T22:44:39.792Z,5.00
2023-01-20T22:49:38.269Z,5.00
2023-01-20T22:54:36.793Z,5.10
2023-01-20T22:59:35.864Z,5.10
2023-01-20T23:04:35.789Z,5.10
2023-01-20T23:09:34.036Z,5.10
2023-01-20T23:14:46.477Z,5.30
2023-01-20T23:19:46.356Z,5.20
2023-01-20T23:24:44.918Z,5.40
2023-01-20T23:29:43.507Z,5.20
2023-01-20T23:34:42.682Z,5.40
2023-01-20T23:39:42.606Z,5.50
2023-01-20T23:44:40.944Z,5.20
2023-01-20T23:49:39.556Z,5.20
2023-01-20T23:54:38.081Z,5.20
2023-01-20T23:59:39.022Z,5.20
